Time;durP1;ratioP1;P1;durP2;ratioP2;P2;SDS_P1;SDS_P2;PMS_P1;PMS_P2;Temp;Humidity;BMP_temperature;BMP_pressure;BME280_temperature;BME280_humidity;BME280_pressure;Samples;Min_cycle;Max_cycle;Signal;HPM_P1;HPM_P2
2022/05/22 00:02:09;;;;;;;11.57;7.13;;;11.80;99.90;;;;;;5098603;28;20176;-71
2022/05/22 00:04:36;;;;;;;14.55;6.72;;;11.80;99.90;;;;;;5097862;28;20184;-71
2022/05/22 00:07:02;;;;;;;12.88;6.65;;;11.70;99.90;;;;;;5115955;28;20172;-71
2022/05/22 00:09:28;;;;;;;10.10;6.40;;;11.70;99.90;;;;;;5115872;28;20187;-71
2022/05/22 00:11:55;;;;;;;12.73;5.90;;;11.60;99.90;;;;;;5116219;28;20169;-71
2022/05/22 00:14:21;;;;;;;8.68;5.30;;;11.50;99.90;;;;;;5097636;28;20192;-74
2022/05/22 00:16:47;;;;;;;14.15;6.28;;;11.40;99.90;;;;;;5116344;28;20177;-71
2022/05/22 00:19:19;;;;;;;10.52;6.43;;;11.40;99.90;;;;;;5115961;28;20184;-71
2022/05/22 00:21:45;;;;;;;13.53;6.97;;;11.40;99.90;;;;;;5115787;28;20231;-71
2022/05/22 00:24:13;;;;;;;7.63;6.27;;;11.50;99.90;;;;;;5097534;28;20204;-71
2022/05/22 00:26:39;;;;;;;8.63;5.90;;;11.60;99.90;;;;;;5115293;28;20543;-71
2022/05/22 00:29:05;;;;;;;9.10;6.28;;;11.60;99.90;;;;;;5096740;28;20692;-70
2022/05/22 00:31:31;;;;;;;9.50;6.40;;;11.60;99.90;;;;;;5097086;28;20199;-71
2022/05/22 00:33:57;;;;;;;8.90;6.50;;;11.60;99.90;;;;;;5116300;28;20553;-71
2022/05/22 00:36:23;;;;;;;13.20;7.40;;;11.50;99.90;;;;;;5115495;28;20171;-71
2022/05/22 00:38:49;;;;;;;12.32;6.93;;;11.50;99.90;;;;;;5097287;28;20200;-71
2022/05/22 00:41:15;;;;;;;10.57;7.05;;;11.50;99.90;;;;;;5116678;28;20494;-71
2022/05/22 00:43:45;;;;;;;11.07;6.80;;;11.50;99.90;;;;;;5117037;28;20176;-71
2022/05/22 00:46:13;;;;;;;10.82;7.20;;;11.50;99.90;;;;;;5117021;28;20161;-71
2022/05/22 00:48:42;;;;;;;11.73;7.23;;;11.50;99.90;;;;;;5116580;28;20192;-71
2022/05/22 00:51:25;;;;;;;11.68;7.28;;;11.50;99.90;;;;;;5097339;28;20200;-71
2022/05/22 00:54:00;;;;;;;14.13;7.30;;;11.50;99.90;;;;;;5115923;28;20157;-71
2022/05/22 00:56:34;;;;;;;9.73;7.67;;;11.40;99.90;;;;;;5096983;28;20176;-71
2022/05/22 00:59:01;;;;;;;14.07;8.10;;;11.50;99.90;;;;;;5096755;28;20195;-71
2022/05/22 01:01:27;;;;;;;12.23;7.75;;;11.50;99.90;;;;;;5114903;28;20536;-71
2022/05/22 01:03:55;;;;;;;12.10;7.30;;;11.40;99.90;;;;;;5115110;28;20173;-71
2022/05/22 01:06:26;;;;;;;10.63;7.63;;;11.40;99.90;;;;;;5096413;28;20204;-71
2022/05/22 01:08:52;;;;;;;11.97;8.07;;;11.40;99.90;;;;;;5096604;28;20231;-71
2022/05/22 01:11:27;;;;;;;12.18;7.00;;;11.40;99.90;;;;;;5114738;28;20300;-71
2022/05/22 01:14:03;;;;;;;11.83;7.23;;;11.20;99.90;;;;;;5096342;28;20187;-71
2022/05/22 01:16:29;;;;;;;11.13;7.57;;;11.20;99.90;;;;;;5096539;28;20509;-71
2022/05/22 01:18:56;;;;;;;9.13;7.03;;;11.10;99.90;;;;;;5114707;28;20275;-71
2022/05/22 01:21:28;;;;;;;12.07;7.57;;;11.10;99.90;;;;;;5114567;28;20230;-71
2022/05/22 01:23:54;;;;;;;8.40;6.63;;;11.10;99.90;;;;;;5114700;28;20165;-70
2022/05/22 01:26:21;;;;;;;11.55;7.13;;;11.10;99.90;;;;;;5096404;28;20589;-71
2022/05/22 01:28:47;;;;;;;9.43;6.70;;;11.10;99.90;;;;;;5095991;28;20204;-71
2022/05/22 01:31:13;;;;;;;10.17;7.33;;;11.00;99.90;;;;;;5114549;28;20228;-71
2022/05/22 01:33:40;;;;;;;10.47;6.77;;;10.90;99.90;;;;;;5114714;28;20595;-71
2022/05/22 01:36:07;;;;;;;9.97;7.20;;;10.90;99.90;;;;;;5096349;28;20285;-71
2022/05/22 01:38:34;;;;;;;11.63;6.93;;;10.90;99.90;;;;;;5114412;28;20211;-70
2022/05/22 01:40:59;;;;;;;9.30;6.93;;;10.90;99.90;;;;;;5116009;28;20160;-71
2022/05/22 01:43:25;;;;;;;13.13;8.07;;;10.90;99.90;;;;;;5119067;28;20221;-71
2022/05/22 01:45:51;;;;;;;11.97;8.30;;;10.80;99.90;;;;;;5118946;28;20546;-71
2022/05/22 01:48:17;;;;;;;10.33;7.67;;;10.70;99.90;;;;;;5118760;28;20724;-71
2022/05/22 01:50:45;;;;;;;12.40;7.57;;;10.60;99.90;;;;;;5118709;28;20290;-71
2022/05/22 01:53:11;;;;;;;10.97;7.67;;;10.60;99.90;;;;;;5118580;28;20200;-71
2022/05/22 01:55:37;;;;;;;11.90;7.77;;;10.70;99.90;;;;;;5100291;28;20525;-71
2022/05/22 01:58:06;;;;;;;11.50;8.17;;;10.70;99.90;;;;;;5118092;28;20191;-71
2022/05/22 02:00:33;;;;;;;14.53;8.50;;;10.80;99.90;;;;;;5100068;28;20181;-71
2022/05/22 02:03:00;;;;;;;12.13;8.53;;;10.70;99.90;;;;;;5118603;28;20281;-70
2022/05/22 02:05:25;;;;;;;11.23;7.67;;;10.70;99.90;;;;;;5118078;28;20168;-70
2022/05/22 02:10:38;;;;;;;10.87;8.20;;;10.50;99.90;;;;;;5118208;28;20203;-70
2022/05/22 02:13:05;;;;;;;12.27;7.90;;;10.50;99.90;;;;;;5118524;28;20231;-71
2022/05/22 02:15:30;;;;;;;12.07;8.13;;;10.50;99.90;;;;;;5118438;28;20244;-70
2022/05/22 02:17:57;;;;;;;10.33;7.73;;;10.40;99.90;;;;;;5117667;28;20223;-71
2022/05/22 02:20:23;;;;;;;14.30;8.07;;;10.40;99.90;;;;;;5117655;28;20168;-70
2022/05/22 02:22:51;;;;;;;10.73;8.30;;;10.40;99.90;;;;;;5118205;28;20538;-70
2022/05/22 02:25:20;;;;;;;12.57;8.63;;;10.40;99.90;;;;;;5099779;28;20588;-70
2022/05/22 02:27:46;;;;;;;11.30;7.83;;;10.40;99.90;;;;;;5117776;28;20196;-70
2022/05/22 02:30:15;;;;;;;9.73;7.50;;;10.40;99.90;;;;;;5117552;28;20201;-70
2022/05/22 02:32:40;;;;;;;11.33;7.53;;;10.30;99.90;;;;;;5118003;28;20175;-70
2022/05/22 02:35:08;;;;;;;12.93;7.43;;;10.30;99.90;;;;;;5117797;28;20248;-70
2022/05/22 02:37:45;;;;;;;8.60;7.10;;;10.30;99.90;;;;;;5117817;28;20695;-71
2022/05/22 02:40:12;;;;;;;9.53;8.00;;;10.20;99.90;;;;;;5117900;28;20160;-70
2022/05/22 02:42:43;;;;;;;10.13;8.20;;;10.20;99.90;;;;;;5117823;28;20258;-70
2022/05/22 02:45:09;;;;;;;8.97;7.37;;;10.20;99.90;;;;;;5117412;28;20191;-70
2022/05/22 02:47:36;;;;;;;11.37;7.93;;;10.00;99.90;;;;;;5099194;28;20239;-70
2022/05/22 02:50:02;;;;;;;8.97;7.30;;;9.90;99.90;;;;;;5117225;28;20196;-70
2022/05/22 02:52:28;;;;;;;10.43;8.03;;;9.90;99.90;;;;;;5097979;28;20226;-70
2022/05/22 02:54:54;;;;;;;12.30;7.83;;;9.90;99.90;;;;;;5117923;28;20176;-70
2022/05/22 02:57:22;;;;;;;12.13;7.20;;;9.90;99.90;;;;;;5118018;28;20189;-70
2022/05/22 02:59:53;;;;;;;11.30;7.87;;;9.90;99.90;;;;;;5098895;28;20186;-70
2022/05/22 03:02:19;;;;;;;9.63;8.37;;;9.90;99.90;;;;;;5098967;28;20176;-71
2022/05/22 03:04:45;;;;;;;11.63;7.97;;;9.90;99.90;;;;;;5117091;28;20184;-70
2022/05/22 03:07:13;;;;;;;14.10;8.93;;;10.00;99.90;;;;;;5116439;28;20225;-70
2022/05/22 03:09:41;;;;;;;9.43;7.97;;;10.00;99.90;;;;;;5098316;28;20192;-70
2022/05/22 03:12:08;;;;;;;11.03;8.53;;;10.00;99.90;;;;;;5117325;28;20172;-70
2022/05/22 03:14:33;;;;;;;10.93;8.80;;;10.00;99.90;;;;;;5116745;28;20192;-70
2022/05/22 03:16:59;;;;;;;12.03;8.57;;;10.00;99.90;;;;;;5098482;28;20268;-70
2022/05/22 03:19:25;;;;;;;11.17;8.93;;;9.80;99.90;;;;;;5116983;28;20177;-70
2022/05/22 03:21:51;;;;;;;15.60;9.80;;;9.80;99.90;;;;;;5116675;28;20179;-70
2022/05/22 03:24:16;;;;;;;17.70;9.67;;;9.70;99.90;;;;;;5116754;28;20643;-70
2022/05/22 03:26:42;;;;;;;13.80;10.10;;;9.70;99.90;;;;;;5098507;28;20233;-70
2022/05/22 03:29:08;;;;;;;13.93;9.93;;;9.70;99.90;;;;;;5117062;28;20188;-70
2022/05/22 03:31:33;;;;;;;16.17;10.47;;;9.80;99.90;;;;;;5116821;28;20635;-70
2022/05/22 03:33:59;;;;;;;16.23;10.33;;;9.70;99.90;;;;;;5117180;28;20160;-70
2022/05/22 03:36:25;;;;;;;12.30;9.87;;;9.60;99.90;;;;;;5098146;28;20560;-70
2022/05/22 03:38:51;;;;;;;13.70;10.10;;;9.60;99.90;;;;;;5116279;28;20204;-70
2022/05/22 03:41:17;;;;;;;11.77;8.97;;;9.70;99.90;;;;;;5098199;28;20176;-70
2022/05/22 03:43:42;;;;;;;13.80;9.87;;;9.70;99.90;;;;;;5098019;28;20184;-70
2022/05/22 03:46:08;;;;;;;11.83;9.03;;;9.70;99.90;;;;;;5098019;28;20181;-70
2022/05/22 03:48:33;;;;;;;15.13;9.73;;;9.70;99.90;;;;;;5115773;28;20219;-70
2022/05/22 03:50:59;;;;;;;14.57;9.40;;;9.80;99.90;;;;;;5115874;28;20197;-71
2022/05/22 03:53:25;;;;;;;14.00;9.77;;;9.80;99.90;;;;;;5116569;28;20544;-70
2022/05/22 03:55:51;;;;;;;15.03;9.23;;;9.80;99.90;;;;;;5097898;28;20183;-70
2022/05/22 03:58:20;;;;;;;13.93;8.93;;;9.80;99.90;;;;;;5115931;28;20579;-70
2022/05/22 04:00:45;;;;;;;10.73;8.33;;;9.70;99.90;;;;;;5116066;28;20671;-70
2022/05/22 04:03:11;;;;;;;10.90;9.13;;;9.70;99.90;;;;;;5116034;28;20180;-70
2022/05/22 04:05:38;;;;;;;12.93;8.70;;;9.70;99.90;;;;;;5097362;28;20199;-70
2022/05/22 04:08:04;;;;;;;12.77;8.63;;;9.70;99.90;;;;;;5115928;28;20215;-70
2022/05/22 04:10:30;;;;;;;11.80;9.23;;;9.80;99.90;;;;;;5116184;28;20208;-70
2022/05/22 04:12:56;;;;;;;10.23;8.53;;;9.90;99.90;;;;;;5115660;28;20198;-70
2022/05/22 04:15:22;;;;;;;9.07;7.47;;;9.90;99.90;;;;;;5097602;28;20634;-70
2022/05/22 04:17:49;;;;;;;10.77;8.40;;;10.00;99.90;;;;;;5098018;28;20277;-70
2022/05/22 04:20:16;;;;;;;10.50;8.37;;;10.00;99.90;;;;;;5115792;28;20226;-70
2022/05/22 04:25:26;;;;;;;10.00;8.10;;;10.10;99.90;;;;;;5115548;28;20171;-70
2022/05/22 04:27:52;;;;;;;11.07;8.83;;;10.20;99.90;;;;;;5115630;28;20199;-70
2022/05/22 04:30:19;;;;;;;10.27;8.77;;;10.20;99.90;;;;;;5115611;28;20279;-70
2022/05/22 04:32:50;;;;;;;11.53;8.77;;;10.30;99.90;;;;;;5097096;28;20184;-70
2022/05/22 04:35:17;;;;;;;9.77;8.63;;;10.30;99.90;;;;;;5097258;28;20229;-70
2022/05/22 04:37:43;;;;;;;11.13;8.90;;;10.30;99.90;;;;;;5096542;28;20234;-70
2022/05/22 04:40:10;;;;;;;11.33;8.73;;;10.40;99.90;;;;;;5115366;28;20204;-70
2022/05/22 04:42:37;;;;;;;13.43;8.47;;;10.40;99.90;;;;;;5115394;28;20181;-70
2022/05/22 04:45:05;;;;;;;10.53;8.43;;;10.50;99.90;;;;;;5097097;28;20187;-70
2022/05/22 04:47:31;;;;;;;9.67;8.17;;;10.50;99.90;;;;;;5096992;28;20196;-70
2022/05/22 04:49:56;;;;;;;12.13;8.20;;;10.50;99.90;;;;;;5097116;28;20579;-70
2022/05/22 04:52:22;;;;;;;10.00;8.53;;;10.50;99.90;;;;;;5114919;28;20257;-70
2022/05/22 04:54:51;;;;;;;11.20;8.80;;;10.50;99.90;;;;;;5096865;28;20188;-70
2022/05/22 04:57:16;;;;;;;11.07;8.83;;;10.50;99.90;;;;;;5115142;28;20172;-70
2022/05/22 04:59:42;;;;;;;14.27;8.80;;;10.50;99.90;;;;;;5096610;28;20183;-70
2022/05/22 05:02:08;;;;;;;11.53;8.57;;;10.50;99.90;;;;;;5097060;28;20168;-70
2022/05/22 05:04:34;;;;;;;10.73;8.17;;;10.50;99.90;;;;;;5115404;28;20200;-70
2022/05/22 05:07:07;;;;;;;11.80;8.87;;;10.40;99.90;;;;;;5115365;28;20528;-70
2022/05/22 05:09:34;;;;;;;9.40;8.17;;;10.50;99.90;;;;;;5116610;28;20181;-70
2022/05/22 05:12:01;;;;;;;10.77;8.83;;;10.50;99.90;;;;;;5116993;28;20177;-70
2022/05/22 05:14:27;;;;;;;8.73;7.80;;;10.50;99.90;;;;;;5116321;28;20210;-70
2022/05/22 05:16:53;;;;;;;12.37;8.47;;;10.50;99.90;;;;;;5116125;28;20229;-70
2022/05/22 05:19:18;;;;;;;11.67;8.17;;;10.60;99.90;;;;;;5097263;28;20704;-70
2022/05/22 05:21:44;;;;;;;10.83;8.30;;;10.70;99.90;;;;;;5114553;28;20625;-70
2022/05/22 05:24:10;;;;;;;10.60;8.63;;;10.90;99.90;;;;;;5097137;28;20173;-70
2022/05/22 05:26:35;;;;;;;11.90;8.70;;;11.00;99.90;;;;;;5097340;28;20178;-70
2022/05/22 05:29:01;;;;;;;11.70;8.67;;;11.10;99.90;;;;;;5098092;28;20219;-70
2022/05/22 05:31:27;;;;;;;10.10;8.30;;;11.20;99.90;;;;;;5098025;28;20222;-70
2022/05/22 05:33:53;;;;;;;10.53;8.30;;;11.30;99.90;;;;;;5115599;28;20176;-70
2022/05/22 05:36:18;;;;;;;11.32;7.82;;;11.40;99.90;;;;;;5115304;28;20176;-70
2022/05/22 05:38:44;;;;;;;9.73;8.57;;;11.50;99.90;;;;;;5096841;28;20293;-70
2022/05/22 05:41:10;;;;;;;10.23;7.73;;;11.60;99.90;;;;;;5096514;28;20177;-70
2022/05/22 05:43:37;;;;;;;12.23;8.77;;;11.70;99.90;;;;;;5114862;28;20160;-70
2022/05/22 05:46:03;;;;;;;10.27;8.27;;;11.70;99.90;;;;;;5114527;28;20164;-70
2022/05/22 05:48:29;;;;;;;12.63;8.70;;;11.70;99.90;;;;;;5114499;28;20267;-70
2022/05/22 05:50:58;;;;;;;12.32;9.30;;;11.80;99.90;;;;;;5114677;28;20670;-71
2022/05/22 05:53:24;;;;;;;10.57;8.80;;;11.80;99.90;;;;;;5114690;28;20251;-72
2022/05/22 05:55:50;;;;;;;9.93;7.97;;;11.80;99.90;;;;;;5115363;28;20188;-71
2022/05/22 05:58:16;;;;;;;10.90;8.48;;;11.80;99.90;;;;;;5096292;28;20268;-71
2022/05/22 06:00:43;;;;;;;10.48;9.13;;;11.80;99.90;;;;;;5114880;28;20538;-71
2022/05/22 06:03:09;;;;;;;11.85;9.05;;;11.80;99.90;;;;;;5114579;28;20180;-70
2022/05/22 06:05:35;;;;;;;13.52;9.82;;;11.90;99.90;;;;;;5114586;28;20260;-71
2022/05/22 06:08:01;;;;;;;11.25;9.00;;;11.90;99.90;;;;;;5114015;28;20700;-71
2022/05/22 06:10:26;;;;;;;13.40;9.93;;;11.90;99.90;;;;;;5095821;28;20230;-71
2022/05/22 06:12:52;;;;;;;15.57;10.30;;;12.00;99.90;;;;;;5114077;28;20180;-71
2022/05/22 06:15:18;;;;;;;17.27;9.93;;;12.10;99.90;;;;;;5114167;28;20172;-71
2022/05/22 06:17:48;;;;;;;13.90;9.80;;;12.20;99.90;;;;;;5095797;28;20199;-71
2022/05/22 06:20:17;;;;;;;17.40;11.02;;;12.20;99.90;;;;;;5114260;28;20165;-71
2022/05/22 06:22:44;;;;;;;14.80;9.93;;;12.30;99.90;;;;;;5096326;28;20169;-71
2022/05/22 06:25:12;;;;;;;17.20;10.50;;;12.40;99.90;;;;;;5096010;28;20165;-71
2022/05/22 06:27:38;;;;;;;17.08;10.43;;;12.50;99.90;;;;;;5114825;28;20235;-71
2022/05/22 06:30:05;;;;;;;13.20;9.80;;;12.60;99.90;;;;;;5117864;28;20653;-70
2022/05/22 06:32:32;;;;;;;15.55;10.15;;;12.70;99.90;;;;;;5117659;28;20168;-69
2022/05/22 06:34:58;;;;;;;13.43;9.70;;;12.80;99.90;;;;;;5099115;28;20176;-68
2022/05/22 06:37:24;;;;;;;15.45;10.93;;;12.90;99.90;;;;;;5098542;28;20196;-68
2022/05/22 06:39:50;;;;;;;18.15;11.52;;;12.90;99.90;;;;;;5117057;28;20168;-68
2022/05/22 06:42:39;;;;;;;15.35;10.38;;;13.00;99.90;;;;;;5117214;28;20255;-68
2022/05/22 06:45:13;;;;;;;15.73;10.73;;;13.20;99.90;;;;;;5117292;28;20167;-68
2022/05/22 06:47:41;;;;;;;16.88;10.07;;;13.30;99.90;;;;;;5117276;28;20191;-70
2022/05/22 06:50:11;;;;;;;15.07;9.27;;;13.40;99.90;;;;;;5098724;28;20208;-70
2022/05/22 06:52:38;;;;;;;16.77;9.95;;;13.50;99.90;;;;;;5098495;28;20609;-69
2022/05/22 06:55:05;;;;;;;17.30;9.93;;;13.60;99.90;;;;;;5117094;28;20168;-68
2022/05/22 06:57:30;;;;;;;13.15;9.95;;;13.80;99.90;;;;;;5117243;28;20201;-72
2022/05/22 06:59:58;;;;;;;15.20;8.95;;;13.90;99.90;;;;;;5117849;28;20169;-71
2022/05/22 07:02:27;;;;;;;14.13;9.43;;;14.00;99.90;;;;;;5116982;28;20168;-72
2022/05/22 07:04:57;;;;;;;15.70;9.27;;;14.10;99.90;;;;;;5117211;28;20160;-72
2022/05/22 07:07:23;;;;;;;13.82;9.43;;;14.20;99.90;;;;;;5098777;28;20275;-72
2022/05/22 07:09:49;;;;;;;12.40;8.77;;;14.30;99.90;;;;;;5099328;28;20299;-72
2022/05/22 07:12:15;;;;;;;12.93;9.18;;;14.40;99.90;;;;;;5117205;28;20581;-72
2022/05/22 07:14:42;;;;;;;13.38;8.40;;;14.50;99.90;;;;;;5098595;28;20200;-72
2022/05/22 07:17:10;;;;;;;12.85;8.93;;;14.60;99.90;;;;;;5098730;28;20356;-72
2022/05/22 07:19:37;;;;;;;15.48;8.57;;;14.70;99.90;;;;;;5116942;28;20177;-72
2022/05/22 07:22:07;;;;;;;14.10;7.95;;;14.70;99.90;;;;;;5116283;28;20169;-72
2022/05/22 07:24:36;;;;;;;15.70;9.23;;;14.80;99.90;;;;;;5116547;28;20175;-72
2022/05/22 07:27:02;;;;;;;13.93;9.15;;;14.90;99.90;;;;;;5116932;28;20243;-73
2022/05/22 07:29:28;;;;;;;11.77;8.25;;;15.00;99.90;;;;;;5118904;28;20164;-72
2022/05/22 07:31:56;;;;;;;9.77;8.30;;;15.00;99.90;;;;;;5098353;28;20629;-72
2022/05/22 07:34:26;;;;;;;13.43;7.82;;;15.00;99.90;;;;;;5117849;28;20171;-72
2022/05/22 07:36:57;;;;;;;9.55;7.00;;;15.00;99.90;;;;;;5097968;28;20172;-72
2022/05/22 07:39:23;;;;;;;11.40;7.30;;;15.10;99.90;;;;;;5097886;28;20688;-72
2022/05/22 07:41:49;;;;;;;12.40;7.68;;;15.20;99.90;;;;;;5116770;28;20684;-73
2022/05/22 07:44:15;;;;;;;13.63;8.63;;;15.30;99.90;;;;;;5098602;28;20172;-72
2022/05/22 07:46:41;;;;;;;11.65;8.35;;;15.40;99.90;;;;;;5098029;28;20176;-70
2022/05/22 07:49:08;;;;;;;11.25;7.63;;;15.40;99.90;;;;;;5115982;28;20274;-70
2022/05/22 07:51:34;;;;;;;15.18;9.02;;;15.40;99.90;;;;;;5115868;28;20204;-70
2022/05/22 07:54:00;;;;;;;12.85;7.50;;;15.50;99.90;;;;;;5115995;28;20186;-70
2022/05/22 07:56:26;;;;;;;12.82;7.63;;;15.50;99.90;;;;;;5097576;28;20172;-70
2022/05/22 07:58:51;;;;;;;16.92;8.77;;;15.70;99.90;;;;;;5116551;28;20218;-73
2022/05/22 08:01:18;;;;;;;12.43;7.95;;;15.80;99.90;;;;;;5098693;28;20675;-74
2022/05/22 08:03:45;;;;;;;15.73;7.95;;;15.90;99.90;;;;;;5098303;28;20169;-73
2022/05/22 08:06:11;;;;;;;15.70;7.60;;;16.00;99.90;;;;;;5097342;28;20164;-70
2022/05/22 08:08:37;;;;;;;13.77;8.30;;;16.10;99.90;;;;;;5097250;28;20325;-71
2022/05/22 08:11:03;;;;;;;13.57;7.70;;;16.20;99.90;;;;;;5096772;28;20204;-71
2022/05/22 08:13:30;;;;;;;14.13;6.90;;;16.20;99.90;;;;;;5114955;28;20305;-70
2022/05/22 08:15:56;;;;;;;14.48;6.72;;;16.30;99.90;;;;;;5115361;28;20177;-72
2022/05/22 08:18:21;;;;;;;10.15;6.32;;;16.30;99.90;;;;;;5097043;28;20661;-72
2022/05/22 08:20:49;;;;;;;14.05;7.30;;;16.40;99.90;;;;;;5115353;28;20191;-72
2022/05/22 08:23:20;;;;;;;13.25;6.90;;;16.40;99.90;;;;;;5097684;28;20681;-72
2022/05/22 08:25:47;;;;;;;11.70;6.93;;;16.50;99.90;;;;;;5115435;28;20183;-72
2022/05/22 08:28:12;;;;;;;12.73;6.25;;;16.60;99.90;;;;;;5115223;28;20196;-72
2022/05/22 08:30:48;;;;;;;13.50;6.38;;;16.60;99.90;;;;;;5096804;28;20207;-72
2022/05/22 08:33:14;;;;;;;8.10;5.32;;;16.80;99.90;;;;;;5096726;28;20278;-72
2022/05/22 08:35:41;;;;;;;10.32;5.78;;;17.00;99.90;;;;;;5115341;28;20175;-72
2022/05/22 08:38:07;;;;;;;11.95;6.45;;;17.20;99.90;;;;;;5096377;28;20571;-71
2022/05/22 08:41:08;;;;;;;10.70;6.40;;;17.30;99.90;;;;;;5115193;28;20178;-72
2022/05/22 08:43:44;;;;;;;11.07;6.05;;;17.50;99.90;;;;;;4995885;28;20243;-72
2022/05/22 08:46:16;;;;;;;9.07;5.43;;;17.50;99.90;;;;;;5100341;28;20183;-72
2022/05/22 08:48:56;;;;;;;13.05;6.25;;;17.60;99.90;;;;;;5114656;28;20215;-72
2022/05/22 08:51:36;;;;;;;11.07;5.47;;;17.70;99.90;;;;;;5113848;28;20190;-72
2022/05/22 08:54:24;;;;;;;10.65;5.32;;;17.90;99.90;;;;;;5115043;28;20182;-72
2022/05/22 08:59:41;;;;;;;9.23;5.70;;;18.20;99.90;;;;;;5115565;28;20249;-71
2022/05/22 09:02:21;;;;;;;10.50;5.40;;;18.10;99.90;;;;;;5096638;28;20175;-72
2022/05/22 09:04:56;;;;;;;8.02;4.78;;;18.10;99.90;;;;;;5096363;28;20164;-72
2022/05/22 09:07:50;;;;;;;8.07;5.00;;;18.30;99.90;;;;;;5114736;28;20679;-72
2022/05/22 09:10:28;;;;;;;11.13;5.35;;;18.60;99.90;;;;;;5096540;28;20695;-72
2022/05/22 09:12:58;;;;;;;8.95;5.10;;;18.80;99.90;;;;;;5096500;28;20168;-72
2022/05/22 09:15:36;;;;;;;7.15;4.68;;;18.90;99.90;;;;;;5096413;28;20187;-73
2022/05/22 09:18:12;;;;;;;8.57;4.80;;;19.10;99.90;;;;;;5114886;28;20196;-72
2022/05/22 09:21:02;;;;;;;11.88;5.53;;;19.20;99.90;;;;;;5114992;28;20152;-72
2022/05/22 09:24:07;;;;;;;9.25;5.18;;;19.40;99.90;;;;;;5096314;28;20204;-72
2022/05/22 09:26:36;;;;;;;12.70;5.15;;;19.50;99.90;;;;;;5096314;28;20176;-72
2022/05/22 09:29:16;;;;;;;9.07;4.97;;;19.60;99.90;;;;;;5114873;28;20200;-72
2022/05/22 09:31:54;;;;;;;8.68;4.75;;;19.80;99.90;;;;;;5096073;28;20229;-72
2022/05/22 09:34:26;;;;;;;12.07;4.95;;;19.90;99.90;;;;;;5096248;28;20264;-72
2022/05/22 09:37:05;;;;;;;9.95;4.65;;;20.00;99.90;;;;;;5114363;28;20324;-72
2022/05/22 09:39:59;;;;;;;10.27;4.85;;;20.20;99.90;;;;;;5114848;28;20176;-72
2022/05/22 09:42:43;;;;;;;11.23;5.13;;;20.20;99.90;;;;;;5114898;28;20187;-73
2022/05/22 09:45:32;;;;;;;10.35;5.55;;;20.30;99.90;;;;;;5096925;28;20176;-72
2022/05/22 09:48:22;;;;;;;9.90;5.68;;;20.40;99.90;;;;;;5114559;28;20226;-70
2022/05/22 09:51:07;;;;;;;11.40;5.10;;;20.40;99.90;;;;;;5114083;28;20234;-73
2022/05/22 09:53:51;;;;;;;12.60;5.82;;;20.50;99.90;;;;;;5096363;28;20207;-71
2022/05/22 09:56:46;;;;;;;9.98;5.35;;;20.40;99.90;;;;;;5114526;28;20161;-72
2022/05/22 09:59:11;;;;;;;11.70;5.97;;;20.60;99.90;;;;;;5114316;28;20275;-69
2022/05/22 10:01:42;;;;;;;10.05;5.18;;;20.60;99.90;;;;;;5096115;28;20636;-68
2022/05/22 10:04:25;;;;;;;13.27;5.57;;;20.60;99.90;;;;;;5118687;28;20667;-67
2022/05/22 10:07:12;;;;;;;11.05;4.85;;;20.80;99.90;;;;;;5117799;28;20180;-68
2022/05/22 10:10:01;;;;;;;10.10;5.80;;;20.70;99.90;;;;;;5099303;28;20189;-68
2022/05/22 10:12:42;;;;;;;9.07;5.05;;;20.80;99.90;;;;;;5099263;28;20164;-69
2022/05/22 10:15:14;;;;;;;11.68;5.22;;;21.00;99.90;;;;;;5117735;28;20637;-70
2022/05/22 10:17:47;;;;;;;16.58;6.68;;;20.90;99.90;;;;;;5100157;28;20196;-70
2022/05/22 10:20:55;;;;;;;9.48;5.68;;;20.70;99.90;;;;;;5118449;28;20156;-72
2022/05/22 10:23:38;;;;;;;9.45;5.28;;;20.80;99.90;;;;;;5015542;28;20179;-72
2022/05/22 10:26:34;;;;;;;9.90;4.65;;;20.90;99.90;;;;;;5109680;28;20236;-72
2022/05/22 10:29:25;;;;;;;7.38;4.55;;;21.10;99.90;;;;;;5099362;28;20287;-72
2022/05/22 10:32:41;;;;;;;13.25;6.38;;;21.30;99.90;;;;;;5117902;28;20207;-71
2022/05/22 10:35:24;;;;;;;13.93;5.78;;;21.40;99.90;;;;;;5015494;28;20180;-71
2022/05/22 10:38:15;;;;;;;7.30;4.50;;;21.30;99.90;;;;;;5108427;28;20277;-71
2022/05/22 10:43:34;;;;;;;9.93;4.72;;;21.40;99.90;;;;;;5118281;28;20214;-71
2022/05/22 10:46:00;;;;;;;10.85;4.57;;;21.70;99.90;;;;;;5117877;28;20161;-71
2022/05/22 10:48:27;;;;;;;10.07;5.25;;;21.70;99.90;;;;;;5099591;28;20691;-71
2022/05/22 10:50:54;;;;;;;10.13;5.40;;;21.80;99.90;;;;;;5099761;28;20226;-72
2022/05/22 10:53:30;;;;;;;13.73;5.93;;;21.70;99.90;;;;;;5118260;28;20651;-72
2022/05/22 10:56:18;;;;;;;13.73;6.57;;;21.50;99.90;;;;;;5100460;28;20345;-71
2022/05/22 10:59:00;;;;;;;13.13;6.40;;;21.10;99.90;;;;;;5119341;28;20603;-72
2022/05/22 11:01:38;;;;;;;8.52;4.97;;;20.80;99.90;;;;;;5099764;28;20172;-72
2022/05/22 11:04:17;;;;;;;13.63;6.45;;;21.10;99.90;;;;;;5117842;28;20160;-71
2022/05/22 11:06:52;;;;;;;12.02;6.38;;;20.90;99.90;;;;;;5099702;28;20184;-72
2022/05/22 11:09:24;;;;;;;11.75;6.63;;;20.90;99.90;;;;;;5100112;28;20203;-70
2022/05/22 11:11:51;;;;;;;11.05;6.03;;;21.00;99.90;;;;;;5085881;28;20204;-71
2022/05/22 11:14:25;;;;;;;10.90;6.55;;;21.30;99.90;;;;;;5101044;28;20192;-74
2022/05/22 11:16:51;;;;;;;13.05;5.85;;;21.40;99.90;;;;;;5101279;28;20226;-70
2022/05/22 11:19:25;;;;;;;7.20;4.10;;;21.60;99.90;;;;;;5099999;28;20220;-70
2022/05/22 11:22:27;;;;;;;7.63;3.63;;;22.20;99.90;;;;;;5117849;28;20222;-73
2022/05/22 11:25:20;;;;;;;6.22;3.20;;;22.80;99.90;;;;;;5117554;28;20656;-73
2022/05/22 11:27:49;;;;;;;10.75;5.32;;;23.30;99.90;;;;;;5098658;28;20197;-73
2022/05/22 11:30:28;;;;;;;6.28;4.30;;;23.10;99.90;;;;;;5117362;28;20556;-73
2022/05/22 11:33:13;;;;;;;11.70;4.10;;;23.10;99.90;;;;;;5117328;28;20167;-72
2022/05/22 11:36:01;;;;;;;13.80;5.22;;;22.90;99.90;;;;;;5098545;28;20187;-72
2022/05/22 11:38:38;;;;;;;10.48;4.53;;;22.50;99.90;;;;;;5116674;28;20242;-72
2022/05/22 11:41:13;;;;;;;8.50;4.82;;;22.10;99.90;;;;;;5098659;28;20263;-72
2022/05/22 11:43:56;;;;;;;6.90;4.43;;;21.60;99.90;;;;;;5098298;28;20628;-72
2022/05/22 11:46:59;;;;;;;10.52;4.93;;;21.30;99.90;;;;;;5116400;28;20164;-72
2022/05/22 11:49:29;;;;;;;11.15;5.28;;;21.00;99.90;;;;;;5116149;28;20687;-71
2022/05/22 11:52:53;;;;;;;7.30;4.40;;;21.20;99.90;;;;;;5097637;28;20200;-72
2022/05/22 11:55:29;;;;;;;11.70;5.22;;;21.70;99.90;;;;;;5115965;28;20180;-71
2022/05/22 11:58:29;;;;;;;8.55;4.78;;;22.00;99.90;;;;;;5097859;28;20189;-72
2022/05/22 12:01:15;;;;;;;11.13;5.22;;;22.40;99.90;;;;;;5098072;28;20190;-72
2022/05/22 12:04:08;;;;;;;8.05;4.47;;;22.80;99.90;;;;;;5097746;28;20211;-71
2022/05/22 12:06:55;;;;;;;13.55;5.28;;;23.20;99.90;;;;;;5097898;28;20642;-71
2022/05/22 12:09:27;;;;;;;9.77;4.20;;;23.60;99.90;;;;;;5115808;28;20200;-72
2022/05/22 12:12:24;;;;;;;8.73;4.00;;;24.00;99.90;;;;;;5116376;28;20200;-73
2022/05/22 12:15:01;;;;;;;7.22;4.07;;;24.30;99.90;;;;;;5097349;28;20198;-72
2022/05/22 12:18:00;;;;;;;11.98;4.93;;;24.30;99.90;;;;;;5116019;28;20187;-72
2022/05/22 12:20:52;;;;;;;10.20;4.95;;;24.50;99.90;;;;;;5116082;28;20157;-72
2022/05/22 12:23:29;;;;;;;11.05;4.15;;;24.70;99.90;;;;;;5059199;28;20301;-72
2022/05/22 12:25:59;;;;;;;9.75;3.75;;;24.20;99.90;;;;;;5115944;28;20160;-73
2022/05/22 12:28:41;;;;;;;11.57;4.65;;;24.40;99.90;;;;;;5097782;28;20197;-72
2022/05/22 12:31:34;;;;;;;12.20;4.30;;;24.70;99.90;;;;;;5116034;28;20184;-73
2022/05/22 12:34:06;;;;;;;13.70;4.57;;;25.10;99.90;;;;;;5115624;28;20198;-73
2022/05/22 12:36:33;;;;;;;8.68;4.03;;;25.40;99.90;;;;;;5115446;28;20200;-72
2022/05/22 12:39:01;;;;;;;8.27;3.53;;;25.30;99.90;;;;;;5114779;28;20664;-73
2022/05/22 12:41:35;;;;;;;9.85;4.93;;;25.20;99.90;;;;;;5115005;28;20192;-70
2022/05/22 12:44:04;;;;;;;8.63;3.97;;;25.00;99.90;;;;;;5114856;28;20167;-70
2022/05/22 12:46:30;;;;;;;7.82;4.50;;;24.90;99.90;;;;;;5114776;28;20646;-70
2022/05/22 12:49:23;;;;;;;8.63;4.15;;;24.40;99.90;;;;;;5114734;28;20204;-70
2022/05/22 12:52:27;;;;;;;9.65;4.43;;;23.90;99.90;;;;;;5115108;28;20180;-75
2022/05/22 12:55:04;;;;;;;7.53;3.63;;;23.40;99.90;;;;;;5096973;28;20180;-74
2022/05/22 12:57:29;;;;;;;8.10;4.03;;;23.40;99.90;;;;;;5115213;28;20552;-73
2022/05/22 12:59:59;;;;;;;9.45;4.50;;;23.80;99.90;;;;;;5114981;28;20176;-71
2022/05/22 13:02:46;;;;;;;9.82;3.80;;;24.40;99.90;;;;;;5114876;28;20173;-71
2022/05/22 13:05:38;;;;;;;6.43;3.05;;;24.70;99.90;;;;;;5096265;28;20168;-71
2022/05/22 13:08:19;;;;;;;10.55;4.72;;;25.30;99.90;;;;;;5091171;28;20692;-71
2022/05/22 13:10:56;;;;;;;10.18;3.92;;;25.70;99.90;;;;;;5114649;28;20188;-71
2022/05/22 13:13:29;;;;;;;10.63;5.32;;;25.70;99.90;;;;;;5096400;28;20192;-71
2022/05/22 13:16:23;;;;;;;10.70;4.40;;;25.70;99.90;;;;;;5096542;28;20625;-72